Terminal Aerodrome Forecast
Issued by NWS

Current Version | Previous Version | Graphics & Text | Print | Product List | Glossary On
Versions: 1 2 3 4 5 6 7 8 9 10 11 12 13 14 15 16 17 18 19 20 21 22 23 24 25 26 27 28 29
111
FTUS41 KRNK 252341
TAFLWB
TAF
KLWB 252341Z 2600/2624 VRB03KT P6SM VCSH OVC035
      TEMPO 2601/2602 OVC015
     FM260300 00000KT P6SM BKN040
     FM260700 00000KT 4SM BR SCT030
     FM260900 00000KT 1/4SM FG BKN001
     FM261300 00000KT P6SM SCT015=

USA.gov is the U.S. government's official web portal to all federal, state and local government web resources and services.